Ellen Mcallister — WDG3673 — position and weather

sailwx.info

Track history (hours):
 
Tides and Currents Weather Stations Pressure Air Temp Water Temp Dewpoint Dewpoint Depression Visibility Wind Speed Wind Dir Waves Ship Positions

Ellen Mcallister

Owner: McAllister Towing & Transportation Inc., Staten Island, NY. More information available from US FCC via Universal Licensing System and Coast Guard Vessel Documentation Center.

Last reported at 2017-Feb-21 07:33 UTC. Time now 2017-Feb-21 07:58 UTC.
Position N 40°39' W 074°05'.

Length 35 m; draft 5 m.

Type: Tug. MMSI: 366836590.

Date/timePositionNaut miles runAvg speedWind from/ knotsBaromVisibWave heightAir tempDewpointWater temp
2017-Feb-21 07:33N 40°39' W 074°05'3 0.6
2017-Feb-21 02:21N 40°40' W 074°09'1 1.4
2017-Feb-21 01:25N 40°41' W 074°09'5 2.8
2017-Feb-20 23:33N 40°38' W 074°03'3 2.9
2017-Feb-20 22:33N 40°40' W 074°05'2 2.4
2017-Feb-20 21:32N 40°38' W 074°03'2 1.1
2017-Feb-20 19:30N 40°39' W 074°06'2 2.4
2017-Feb-20 18:33N 40°41' W 074°08'0 0.2
2017-Feb-20 17:33N 40°40' W 074°08'3 0.3
2017-Feb-20 10:12N 40°39' W 074°05'2 2.6
2017-Feb-20 09:33N 40°38' W 074°03'4 0.5
2017-Feb-20 00:33N 40°40' W 074°08'0 0.0
2017-Feb-19 23:33N 40°40' W 074°08'0 0.0
2017-Feb-19 22:33N 40°40' W 074°08'0 0.0
2017-Feb-19 21:33N 40°40' W 074°08'0 0.0
2017-Feb-19 20:31N 40°40' W 074°08'1 0.3
2017-Feb-19 17:25N 40°40' W 074°09'3 2.3
2017-Feb-19 16:19N 40°39' W 074°06'1 0.4
2017-Feb-19 13:29N 40°39' W 074°04'1 0.9
2017-Feb-19 12:32N 40°39' W 074°04'1 1.0
2017-Feb-19 11:30N 40°40' W 074°05'0 0.0
2017-Feb-19 10:17N 40°40' W 074°05'6 7.6
2017-Feb-19 09:33N 40°42' W 073°58'0 0.5
2017-Feb-19 08:33N 40°42' W 073°59'5 4.5
2017-Feb-19 07:33N 40°40' W 074°04'0 0.4
2017-Feb-19 06:33N 40°40' W 074°04'0 0.0
2017-Feb-19 05:33N 40°40' W 074°04'0 0.0
2017-Feb-19 04:33N 40°40' W 074°04'0 0.0
2017-Feb-19 03:33N 40°40' W 074°04'0 0.0
2017-Feb-19 02:33N 40°40' W 074°04'0 0.0
2017-Feb-19 01:33N 40°40' W 074°04'1 0.8
2017-Feb-19 00:24N 40°39' W 074°05'3 0.3
2017-Feb-18 13:20N 40°40' W 074°09'1 0.3
2017-Feb-18 11:30N 40°40' W 074°08'5 4.7
2017-Feb-18 10:32N 40°38' W 074°03'7 1.6
2017-Feb-18 06:10N 40°38' W 074°12'0 0.0
2017-Feb-18 05:30N 40°38' W 074°12'3 1.6
2017-Feb-18 03:26N 40°40' W 074°09'0 0.1
2017-Feb-18 01:29N 40°39' W 074°09'1 0.8
2017-Feb-18 00:06N 40°41' W 074°08'0 0.4
2017-Feb-17 23:33N 40°41' W 074°09'3 3.1
2017-Feb-17 22:32N 40°40' W 074°04'0 0.3
2017-Feb-17 21:33N 40°40' W 074°05'3 1.5
2017-Feb-17 19:29N 40°40' W 074°09'3 0.8
2017-Feb-17 16:13N 40°39' W 074°06'3 3.5
2017-Feb-17 15:29N 40°38' W 074°03'5 0.4
2017-Feb-17 02:33N 40°40' W 074°08'0 0.1
2017-Feb-16 23:33N 40°40' W 074°08'1 0.8
2017-Feb-16 22:26N 40°40' W 074°09'0 0.0
2017-Feb-16 21:33N 40°40' W 074°09'0 0.0
2017-Feb-16 20:33N 40°40' W 074°09'0 0.1
2017-Feb-16 19:31N 40°40' W 074°09'2 1.4
2017-Feb-16 18:28N 40°39' W 074°07'4 4.0
2017-Feb-16 17:26N 40°37' W 074°03'6 1.4
2017-Feb-16 13:16N 40°40' W 074°08'0 0.0
2017-Feb-15 23:23N 40°40' W 074°08'1 0.7
2017-Feb-15 22:33N 40°41' W 074°09'5 2.5
2017-Feb-15 20:25N 40°38' W 074°03'3 3.2
2017-Feb-15 19:34N 40°40' W 074°05'4 3.1
2017-Feb-15 18:19N 40°37' W 074°03'3 4.0
2017-Feb-15 17:33N 40°40' W 074°03'1 1.2
2017-Feb-15 16:32N 40°40' W 074°05'4 0.5
2017-Feb-15 08:33N 40°42' W 074°00'3 3.5
2017-Feb-15 07:33N 40°40' W 074°04'1 0.8
2017-Feb-15 06:33N 40°40' W 074°05'0 0.0
2017-Feb-15 05:33N 40°40' W 074°05'0 0.0
2017-Feb-15 04:33N 40°40' W 074°05'0 0.0
2017-Feb-15 03:33N 40°40' W 074°05'4 4.0
2017-Feb-15 02:33N 40°42' W 074°00'0 0.0
2017-Feb-15 01:34N 40°42' W 074°00'3 3.4
2017-Feb-15 00:33N 40°40' W 074°04'5 5.0
2017-Feb-14 23:33N 40°42' W 073°58'0 0.0
2017-Feb-14 22:33N 40°42' W 073°58'5 4.9
2017-Feb-14 21:33N 40°40' W 074°04'4 0.5
2017-Feb-14 13:16N 40°40' W 074°09'1 0.3
2017-Feb-14 09:20N 40°38' W 074°10'1 1.9
2017-Feb-14 08:33N 40°40' W 074°09'0 0.2
2017-Feb-14 07:33N 40°40' W 074°09'1 0.1
2017-Feb-14 02:33N 40°40' W 074°09'0 0.3
2017-Feb-14 01:33N 40°40' W 074°08'3 2.4
2017-Feb-14 00:28N 40°39' W 074°06'1 1.5
2017-Feb-13 23:30N 40°40' W 074°05'4 3.7
2017-Feb-13 22:33N 40°37' W 074°03'3 2.6
2017-Feb-13 21:33N 40°39' W 074°04'3 2.6
2017-Feb-13 20:14N 40°40' W 074°09'0 0.2
2017-Feb-13 19:33N 40°40' W 074°09'2 1.1
2017-Feb-13 17:30N 40°42' W 074°09'2 0.5
2017-Feb-13 13:21N 40°40' W 074°09'2 1.8
2017-Feb-13 12:17N 40°41' W 074°08'3 2.9
2017-Feb-13 11:08N 40°39' W 074°05'2 3.9
2017-Feb-13 10:33N 40°38' W 074°03'4 1.7
2017-Feb-13 08:26N 40°39' W 074°07'2 0.8
2017-Feb-13 05:33N 40°41' W 074°08'2 0.6
2017-Feb-13 02:30N 40°39' W 074°09'1 0.9
2017-Feb-13 01:33N 40°40' W 074°08'4 4.3
2017-Feb-13 00:33N 40°38' W 074°03'1 0.7
2017-Feb-12 23:33N 40°39' W 074°04'4 3.8
2017-Feb-12 22:33N 40°40' W 074°08'3 2.0
2017-Feb-12 21:13N 40°39' W 074°05'3 0.1
2017-Feb-11 22:26N 40°40' W 074°09'3 0.2
2017-Feb-11 12:18N 40°39' W 074°05'2 3.3
2017-Feb-11 11:33N 40°40' W 074°08'0 0.2
2017-Feb-11 10:33N 40°40' W 074°09'  
Track history (hours):
 
Tides and Currents Weather Stations Pressure Air Temp Water Temp Dewpoint Dewpoint Depression Visibility Wind Speed Wind Dir Waves Ship Positions

Ellen Mcallister

Owner: McAllister Towing & Transportation Inc., Staten Island, NY. More information available from US FCC via Universal Licensing System and Coast Guard Vessel Documentation Center.

Last reported at 2017-Feb-21 07:33 UTC. Time now 2017-Feb-21 07:58 UTC.
Position N 40°39' W 074°05'.

Length 35 m; draft 5 m.

Type: Tug. MMSI: 366836590.

Date/timePositionNaut miles runAvg speedWind from/ knotsBaromVisibWave heightAir tempDewpointWater temp
2017-Feb-21 07:33N 40°39' W 074°05'3 0.6
2017-Feb-21 02:21N 40°40' W 074°09'1 1.4
2017-Feb-21 01:25N 40°41' W 074°09'5 2.8
2017-Feb-20 23:33N 40°38' W 074°03'3 2.9
2017-Feb-20 22:33N 40°40' W 074°05'2 2.4
2017-Feb-20 21:32N 40°38' W 074°03'2 1.1
2017-Feb-20 19:30N 40°39' W 074°06'2 2.4
2017-Feb-20 18:33N 40°41' W 074°08'0 0.2
2017-Feb-20 17:33N 40°40' W 074°08'3 0.3
2017-Feb-20 10:12N 40°39' W 074°05'2 2.6
2017-Feb-20 09:33N 40°38' W 074°03'4 0.5
2017-Feb-20 00:33N 40°40' W 074°08'0 0.0
2017-Feb-19 23:33N 40°40' W 074°08'0 0.0
2017-Feb-19 22:33N 40°40' W 074°08'0 0.0
2017-Feb-19 21:33N 40°40' W 074°08'0 0.0
2017-Feb-19 20:31N 40°40' W 074°08'1 0.3
2017-Feb-19 17:25N 40°40' W 074°09'3 2.3
2017-Feb-19 16:19N 40°39' W 074°06'1 0.4
2017-Feb-19 13:29N 40°39' W 074°04'1 0.9
2017-Feb-19 12:32N 40°39' W 074°04'1 1.0
2017-Feb-19 11:30N 40°40' W 074°05'0 0.0
2017-Feb-19 10:17N 40°40' W 074°05'6 7.6
2017-Feb-19 09:33N 40°42' W 073°58'0 0.5
2017-Feb-19 08:33N 40°42' W 073°59'5 4.5
2017-Feb-19 07:33N 40°40' W 074°04'0 0.4
2017-Feb-19 06:33N 40°40' W 074°04'0 0.0
2017-Feb-19 05:33N 40°40' W 074°04'0 0.0
2017-Feb-19 04:33N 40°40' W 074°04'0 0.0
2017-Feb-19 03:33N 40°40' W 074°04'0 0.0
2017-Feb-19 02:33N 40°40' W 074°04'0 0.0
2017-Feb-19 01:33N 40°40' W 074°04'1 0.8
2017-Feb-19 00:24N 40°39' W 074°05'3 0.3
2017-Feb-18 13:20N 40°40' W 074°09'1 0.3
2017-Feb-18 11:30N 40°40' W 074°08'5 4.7
2017-Feb-18 10:32N 40°38' W 074°03'7 1.6
2017-Feb-18 06:10N 40°38' W 074°12'0 0.0
2017-Feb-18 05:30N 40°38' W 074°12'3 1.6
2017-Feb-18 03:26N 40°40' W 074°09'0 0.1
2017-Feb-18 01:29N 40°39' W 074°09'1 0.8
2017-Feb-18 00:06N 40°41' W 074°08'0 0.4
2017-Feb-17 23:33N 40°41' W 074°09'3 3.1
2017-Feb-17 22:32N 40°40' W 074°04'0 0.3
2017-Feb-17 21:33N 40°40' W 074°05'3 1.5
2017-Feb-17 19:29N 40°40' W 074°09'3 0.8
2017-Feb-17 16:13N 40°39' W 074°06'3 3.5
2017-Feb-17 15:29N 40°38' W 074°03'5 0.4
2017-Feb-17 02:33N 40°40' W 074°08'0 0.1
2017-Feb-16 23:33N 40°40' W 074°08'1 0.8
2017-Feb-16 22:26N 40°40' W 074°09'0 0.0
2017-Feb-16 21:33N 40°40' W 074°09'0 0.0
2017-Feb-16 20:33N 40°40' W 074°09'0 0.1
2017-Feb-16 19:31N 40°40' W 074°09'2 1.4
2017-Feb-16 18:28N 40°39' W 074°07'4 4.0
2017-Feb-16 17:26N 40°37' W 074°03'6 1.4
2017-Feb-16 13:16N 40°40' W 074°08'0 0.0
2017-Feb-15 23:23N 40°40' W 074°08'1 0.7
2017-Feb-15 22:33N 40°41' W 074°09'5 2.5
2017-Feb-15 20:25N 40°38' W 074°03'3 3.2
2017-Feb-15 19:34N 40°40' W 074°05'4 3.1
2017-Feb-15 18:19N 40°37' W 074°03'3 4.0
2017-Feb-15 17:33N 40°40' W 074°03'1 1.2
2017-Feb-15 16:32N 40°40' W 074°05'4 0.5
2017-Feb-15 08:33N 40°42' W 074°00'3 3.5
2017-Feb-15 07:33N 40°40' W 074°04'1 0.8
2017-Feb-15 06:33N 40°40' W 074°05'0 0.0
2017-Feb-15 05:33N 40°40' W 074°05'0 0.0
2017-Feb-15 04:33N 40°40' W 074°05'0 0.0
2017-Feb-15 03:33N 40°40' W 074°05'4 4.0
2017-Feb-15 02:33N 40°42' W 074°00'0 0.0
2017-Feb-15 01:34N 40°42' W 074°00'3 3.4
2017-Feb-15 00:33N 40°40' W 074°04'5 5.0
2017-Feb-14 23:33N 40°42' W 073°58'0 0.0
2017-Feb-14 22:33N 40°42' W 073°58'5 4.9
2017-Feb-14 21:33N 40°40' W 074°04'4 0.5
2017-Feb-14 13:16N 40°40' W 074°09'1 0.3
2017-Feb-14 09:20N 40°38' W 074°10'1 1.9
2017-Feb-14 08:33N 40°40' W 074°09'0 0.2
2017-Feb-14 07:33N 40°40' W 074°09'1 0.1
2017-Feb-14 02:33N 40°40' W 074°09'0 0.3
2017-Feb-14 01:33N 40°40' W 074°08'3 2.4
2017-Feb-14 00:28N 40°39' W 074°06'1 1.5
2017-Feb-13 23:30N 40°40' W 074°05'4 3.7
2017-Feb-13 22:33N 40°37' W 074°03'3 2.6
2017-Feb-13 21:33N 40°39' W 074°04'3 2.6
2017-Feb-13 20:14N 40°40' W 074°09'0 0.2
2017-Feb-13 19:33N 40°40' W 074°09'2 1.1
2017-Feb-13 17:30N 40°42' W 074°09'2 0.5
2017-Feb-13 13:21N 40°40' W 074°09'2 1.8
2017-Feb-13 12:17N 40°41' W 074°08'3 2.9
2017-Feb-13 11:08N 40°39' W 074°05'2 3.9
2017-Feb-13 10:33N 40°38' W 074°03'4 1.7
2017-Feb-13 08:26N 40°39' W 074°07'2 0.8
2017-Feb-13 05:33N 40°41' W 074°08'2 0.6
2017-Feb-13 02:30N 40°39' W 074°09'1 0.9
2017-Feb-13 01:33N 40°40' W 074°08'4 4.3
2017-Feb-13 00:33N 40°38' W 074°03'1 0.7
2017-Feb-12 23:33N 40°39' W 074°04'4 3.8
2017-Feb-12 22:33N 40°40' W 074°08'3 2.0
2017-Feb-12 21:13N 40°39' W 074°05'3 0.1
2017-Feb-11 22:26N 40°40' W 074°09'3 0.2
2017-Feb-11 12:18N 40°39' W 074°05'2 3.3
2017-Feb-11 11:33N 40°40' W 074°08'0 0.2
2017-Feb-11 10:33N 40°40' W 074°09'  

Dump ship's entire track history